createdAt,value
2023-07-25T00:00:33.277Z,3.50
2023-07-25T00:02:59.924Z,3.72
2023-07-25T00:05:26.649Z,4.65
2023-07-25T00:07:53.281Z,3.53
2023-07-25T00:10:19.894Z,3.25
2023-07-25T00:12:46.588Z,3.47
2023-07-25T00:15:13.304Z,3.50
2023-07-25T00:17:41.259Z,3.17
2023-07-25T00:20:08.827Z,3.92
2023-07-25T00:22:35.650Z,3.15
2023-07-25T00:25:02.254Z,3.38
2023-07-25T00:27:28.802Z,3.30
2023-07-25T00:29:55.434Z,3.25
2023-07-25T00:32:22.005Z,3.25
2023-07-25T00:34:52.384Z,3.42
2023-07-25T00:37:18.989Z,3.38
2023-07-25T00:39:45.756Z,3.75
2023-07-25T00:42:12.455Z,2.85
2023-07-25T00:44:39.000Z,2.92
2023-07-25T00:47:05.882Z,3.58
2023-07-25T00:49:32.469Z,3.72
2023-07-25T00:52:00.361Z,3.78
2023-07-25T00:54:27.155Z,3.63
2023-07-25T00:56:53.781Z,3.10
2023-07-25T00:59:20.428Z,3.22
2023-07-25T01:01:47.162Z,3.67
2023-07-25T01:04:13.849Z,3.28
2023-07-25T01:06:40.564Z,3.20
2023-07-25T01:09:08.494Z,3.60
2023-07-25T01:11:35.095Z,4.03
2023-07-25T01:14:01.725Z,4.10
2023-07-25T01:16:29.646Z,3.85
2023-07-25T01:18:57.116Z,4.28
2023-07-25T01:21:24.003Z,4.13
2023-07-25T01:23:51.003Z,4.53
2023-07-25T01:26:19.385Z,4.45
2023-07-25T01:28:46.059Z,4.75
2023-07-25T01:31:12.850Z,4.38
2023-07-25T01:33:39.653Z,4.05
2023-07-25T01:36:06.403Z,4.93
2023-07-25T01:38:33.111Z,4.40
2023-07-25T01:40:59.911Z,5.43
2023-07-25T01:43:28.074Z,5.30
2023-07-25T01:45:54.982Z,4.88
2023-07-25T01:48:21.734Z,5.00
2023-07-25T01:50:48.345Z,4.95
2023-07-25T01:53:15.147Z,5.25
2023-07-25T01:55:41.806Z,5.50
2023-07-25T01:58:08.436Z,5.90
2023-07-25T02:00:36.543Z,4.60
2023-07-25T02:03:03.330Z,5.18
2023-07-25T02:05:29.984Z,5.10
2023-07-25T02:07:56.651Z,4.75
2023-07-25T02:10:23.745Z,5.93
2023-07-25T02:12:50.404Z,6.07
2023-07-25T02:15:17.369Z,6.20
2023-07-25T02:17:45.668Z,5.90
2023-07-25T02:20:12.415Z,6.18
2023-07-25T02:22:39.056Z,7.03
2023-07-25T02:25:06.297Z,5.57
2023-07-25T02:27:33.218Z,5.85
2023-07-25T02:29:59.921Z,6.50
2023-07-25T02:32:26.695Z,6.47
2023-07-25T02:34:54.892Z,6.28
2023-07-25T02:37:21.646Z,6.18
2023-07-25T02:39:48.385Z,6.57
2023-07-25T02:42:15.188Z,6.38
2023-07-25T02:44:41.808Z,5.25
2023-07-25T02:47:08.508Z,6.60
2023-07-25T02:49:35.289Z,6.10
2023-07-25T02:52:03.693Z,5.82
2023-07-25T02:54:30.444Z,5.97
2023-07-25T02:56:57.197Z,5.68
2023-07-25T02:59:23.874Z,6.60
2023-07-25T03:01:50.553Z,6.55
2023-07-25T03:04:17.391Z,6.00
2023-07-25T03:06:45.585Z,5.82
2023-07-25T03:09:13.862Z,5.65
2023-07-25T03:11:40.713Z,5.78
2023-07-25T03:14:07.521Z,5.90
2023-07-25T03:16:34.375Z,7.03
2023-07-25T03:19:01.142Z,6.72
2023-07-25T03:21:27.814Z,6.50
2023-07-25T03:23:54.514Z,7.18
2023-07-25T03:26:26.452Z,5.97
2023-07-25T03:28:53.161Z,5.82
2023-07-25T03:31:19.906Z,6.53
2023-07-25T03:33:46.633Z,5.20
2023-07-25T03:36:13.351Z,6.05
2023-07-25T03:38:40.116Z,6.07
2023-07-25T03:41:06.757Z,6.30
2023-07-25T03:43:34.805Z,6.13
2023-07-25T03:46:01.799Z,5.45
2023-07-25T03:48:28.538Z,5.30
2023-07-25T03:50:55.375Z,6.03
2023-07-25T03:53:22.062Z,4.30
2023-07-25T03:55:48.704Z,4.25
2023-07-25T03:58:15.400Z,4.88
2023-07-25T04:00:43.443Z,4.22
2023-07-25T04:03:15.440Z,3.97
2023-07-25T04:05:44.931Z,4.00
2023-07-25T04:08:11.593Z,3.88
2023-07-25T04:10:38.263Z,4.38
2023-07-25T04:13:05.013Z,5.28
2023-07-25T04:15:32.031Z,4.40
2023-07-25T04:18:00.107Z,4.60
2023-07-25T04:20:26.780Z,4.68
2023-07-25T04:22:59.582Z,4.70
2023-07-25T04:25:27.466Z,4.20
2023-07-25T04:27:54.161Z,4.25
2023-07-25T04:30:21.023Z,4.00
2023-07-25T04:32:47.778Z,4.50
2023-07-25T04:35:16.014Z,4.05
2023-07-25T04:37:42.699Z,5.32
2023-07-25T04:40:10.387Z,5.05
2023-07-25T04:42:37.082Z,4.03
2023-07-25T04:45:04.076Z,4.53
2023-07-25T04:47:30.892Z,4.85
2023-07-25T04:49:57.601Z,3.63
2023-07-25T04:52:25.857Z,3.80
2023-07-25T04:54:52.521Z,4.15
2023-07-25T04:57:19.186Z,3.92
2023-07-25T04:59:45.843Z,4.10
2023-07-25T05:02:12.545Z,4.20
2023-07-25T05:04:39.219Z,4.70
2023-07-25T05:07:06.422Z,4.25
2023-07-25T05:09:34.515Z,4.35
2023-07-25T05:12:01.214Z,4.30
2023-07-25T05:14:27.864Z,4.05
2023-07-25T05:16:54.529Z,3.83
2023-07-25T05:19:21.188Z,3.83
2023-07-25T05:21:47.902Z,3.72
2023-07-25T05:24:14.607Z,3.40
2023-07-25T05:26:42.845Z,3.75
2023-07-25T05:29:12.998Z,3.22
2023-07-25T05:31:39.719Z,4.15
2023-07-25T05:34:06.354Z,4.07
2023-07-25T05:36:33.214Z,3.03
2023-07-25T05:38:59.960Z,3.97
2023-07-25T05:41:26.727Z,3.05
2023-07-25T05:43:54.877Z,3.22
2023-07-25T05:46:21.531Z,2.53
2023-07-25T05:48:48.217Z,3.38
2023-07-25T05:51:14.894Z,3.72
2023-07-25T05:53:41.795Z,3.22
2023-07-25T05:56:08.525Z,3.55
2023-07-25T05:58:35.249Z,3.22
2023-07-25T06:01:03.411Z,3.08
2023-07-25T06:03:30.161Z,2.42
2023-07-25T06:05:57.012Z,2.97
2023-07-25T06:08:23.734Z,2.38
2023-07-25T06:10:50.420Z,2.53
2023-07-25T06:13:17.154Z,2.17
2023-07-25T06:15:44.120Z,2.10
2023-07-25T06:18:12.247Z,2.22
2023-07-25T06:20:38.969Z,2.67
2023-07-25T06:23:05.699Z,1.98
2023-07-25T06:25:32.688Z,2.05
2023-07-25T06:27:59.339Z,1.90
2023-07-25T06:30:26.050Z,2.63
2023-07-25T06:32:55.165Z,2.72
2023-07-25T06:35:23.861Z,1.95
2023-07-25T06:37:50.890Z,1.70
2023-07-25T06:40:17.691Z,2.15
2023-07-25T06:42:44.386Z,2.50
2023-07-25T06:45:11.230Z,1.73
2023-07-25T06:47:37.959Z,1.80
2023-07-25T06:50:05.561Z,1.70
2023-07-25T06:52:33.656Z,1.65
2023-07-25T06:55:00.343Z,26.73
2023-07-25T06:57:27.212Z,2.20
2023-07-25T06:59:53.897Z,2.00
2023-07-25T07:02:20.682Z,1.50
2023-07-25T07:04:47.445Z,1.88
2023-07-25T07:07:14.230Z,1.65
2023-07-25T07:09:42.431Z,2.00
2023-07-25T07:12:09.294Z,1.83
2023-07-25T07:14:36.108Z,1.88
2023-07-25T07:17:03.144Z,1.42
2023-07-25T07:19:30.052Z,2.75
2023-07-25T07:21:56.887Z,1.67
2023-07-25T07:24:23.778Z,1.73
2023-07-25T07:26:52.003Z,1.77
2023-07-25T07:29:19.294Z,1.60
2023-07-25T07:31:46.110Z,1.77
2023-07-25T07:34:14.236Z,1.60
2023-07-25T07:36:40.971Z,2.05
2023-07-25T07:39:07.793Z,1.85
2023-07-25T07:41:35.577Z,1.65
2023-07-25T07:44:04.180Z,1.67
2023-07-25T07:46:31.620Z,1.65
2023-07-25T07:48:58.773Z,1.85
2023-07-25T07:51:25.682Z,1.80
2023-07-25T07:53:52.492Z,1.95
2023-07-25T07:56:19.605Z,1.30
2023-07-25T07:58:46.701Z,1.90
2023-07-25T08:01:19.761Z,1.75
2023-07-25T08:03:47.002Z,1.70
2023-07-25T08:06:14.222Z,1.50
2023-07-25T08:08:41.009Z,1.50
2023-07-25T08:11:07.940Z,1.73
2023-07-25T08:16:32.646Z,1.50
2023-07-25T08:18:59.398Z,1.98
2023-07-25T08:21:26.206Z,1.33
2023-07-25T08:23:52.972Z,1.90
2023-07-25T08:26:19.699Z,1.75
2023-07-25T08:28:46.506Z,1.70
2023-07-25T08:31:13.363Z,1.58
2023-07-25T08:33:41.503Z,1.58
2023-07-25T08:36:08.284Z,1.85
2023-07-25T08:38:35.112Z,1.52
2023-07-25T08:41:05.166Z,1.65
2023-07-25T08:43:37.879Z,2.00
2023-07-25T08:46:15.237Z,1.83
2023-07-25T08:49:14.583Z,2.03
2023-07-25T08:51:45.359Z,1.73
2023-07-25T08:54:22.151Z,1.60
2023-07-25T08:56:49.419Z,2.40
2023-07-25T08:59:16.818Z,1.50
2023-07-25T09:01:44.040Z,2.40
2023-07-25T09:04:13.592Z,1.42
2023-07-25T09:06:40.388Z,2.08
2023-07-25T09:09:07.596Z,1.92
2023-07-25T09:11:35.097Z,1.83
2023-07-25T09:14:02.542Z,1.35
2023-07-25T09:16:30.469Z,1.75
2023-07-25T09:18:57.326Z,1.65
2023-07-25T09:21:25.700Z,1.83
2023-07-25T09:23:53.096Z,1.48
2023-07-25T09:26:23.013Z,2.17
2023-07-25T09:28:51.159Z,1.50
2023-07-25T09:31:18.338Z,1.83
2023-07-25T09:33:48.151Z,1.77
2023-07-25T09:36:15.491Z,1.50
2023-07-25T09:38:49.381Z,1.50
2023-07-25T09:41:16.233Z,1.90
2023-07-25T09:43:42.914Z,1.67
2023-07-25T09:46:10.285Z,2.05
2023-07-25T09:48:37.036Z,1.80
2023-07-25T09:51:04.190Z,1.70
2023-07-25T09:53:30.971Z,1.48
2023-07-25T09:55:59.917Z,1.88
2023-07-25T09:58:27.575Z,1.40
2023-07-25T10:00:56.186Z,1.98
2023-07-25T10:03:24.322Z,1.52
2023-07-25T10:05:52.098Z,1.10
2023-07-25T10:08:22.155Z,1.50
2023-07-25T10:10:49.386Z,1.63
2023-07-25T10:13:17.525Z,1.20
2023-07-25T10:15:44.754Z,1.75
2023-07-25T10:18:22.756Z,1.92
2023-07-25T10:20:50.398Z,1.67
2023-07-25T10:23:17.209Z,2.05
2023-07-25T10:29:37.807Z,1.48
2023-07-25T10:32:05.277Z,1.60
2023-07-25T10:34:44.383Z,1.45
2023-07-25T10:37:21.422Z,1.70
2023-07-25T10:40:01.780Z,1.67
2023-07-25T10:42:51.846Z,1.50
2023-07-25T10:45:47.794Z,1.83
2023-07-25T10:48:32.574Z,2.00
2023-07-25T10:51:00.188Z,1.50
2023-07-25T10:53:26.866Z,2.22
2023-07-25T10:56:10.610Z,2.40
2023-07-25T10:58:38.712Z,2.10
2023-07-25T11:01:08.213Z,1.92
2023-07-25T11:03:35.999Z,1.85
2023-07-25T11:06:36.153Z,1.50
2023-07-25T11:09:10.393Z,1.83
2023-07-25T11:11:43.379Z,1.83
2023-07-25T11:14:11.270Z,1.95
2023-07-25T11:16:40.060Z,1.42
2023-07-25T11:19:07.488Z,1.63
2023-07-25T11:21:37.932Z,1.70
2023-07-25T11:24:07.422Z,1.70
2023-07-25T11:26:34.579Z,1.63
2023-07-25T11:29:05.944Z,1.38
2023-07-25T11:31:33.083Z,1.70
2023-07-25T11:34:12.022Z,1.98
2023-07-25T11:36:39.555Z,1.30
2023-07-25T11:39:07.017Z,1.60
2023-07-25T11:41:34.346Z,1.65
2023-07-25T11:44:03.772Z,1.50
2023-07-25T11:46:30.829Z,1.40
2023-07-25T11:48:58.191Z,1.45
2023-07-25T11:51:27.257Z,1.33
2023-07-25T11:53:55.074Z,1.38
2023-07-25T11:56:22.021Z,1.60
2023-07-25T11:58:49.171Z,1.40
2023-07-25T12:01:15.960Z,1.27
2023-07-25T12:03:46.978Z,1.00
2023-07-25T12:06:13.660Z,1.33
2023-07-25T12:08:43.850Z,1.63
2023-07-25T12:11:11.986Z,1.10
2023-07-25T12:13:47.097Z,1.33
2023-07-25T12:16:36.209Z,1.88
2023-07-25T12:19:05.282Z,1.30
2023-07-25T12:21:33.402Z,1.63
2023-07-25T12:24:03.447Z,1.30
2023-07-25T12:26:39.660Z,1.50
2023-07-25T12:29:13.834Z,1.00
2023-07-25T12:31:40.909Z,1.50
2023-07-25T12:34:07.674Z,1.27
2023-07-25T12:36:34.606Z,1.52
2023-07-25T12:39:02.914Z,1.27
2023-07-25T12:41:29.566Z,1.23
2023-07-25T12:43:56.239Z,1.20
2023-07-25T12:46:23.110Z,1.02
2023-07-25T12:48:49.869Z,1.10
2023-07-25T12:51:16.618Z,1.60
2023-07-25T12:53:43.319Z,1.30
2023-07-25T12:56:11.350Z,1.02
2023-07-25T12:58:38.075Z,1.45
2023-07-25T13:01:04.988Z,1.77
2023-07-25T13:03:32.023Z,1.20
2023-07-25T13:05:58.805Z,1.20
2023-07-25T13:08:25.580Z,0.90
2023-07-25T13:10:52.418Z,1.08
2023-07-25T13:13:20.483Z,1.30
2023-07-25T13:15:47.284Z,1.00
2023-07-25T13:18:13.987Z,1.00
2023-07-25T13:20:40.789Z,1.25
2023-07-25T13:23:07.580Z,0.90
2023-07-25T13:25:34.257Z,1.00
2023-07-25T13:28:00.978Z,1.40
2023-07-25T13:30:29.026Z,1.27
2023-07-25T13:32:55.820Z,0.85
2023-07-25T13:35:22.617Z,1.23
2023-07-25T13:37:49.428Z,1.13
2023-07-25T13:40:16.284Z,1.08
2023-07-25T13:42:43.063Z,1.15
2023-07-25T13:45:11.939Z,1.35
2023-07-25T13:47:39.974Z,1.00
2023-07-25T13:50:07.225Z,1.13
2023-07-25T13:52:33.881Z,1.02
2023-07-25T13:55:00.622Z,1.23
2023-07-25T13:57:32.644Z,0.80
2023-07-25T14:00:00.751Z,1.00
2023-07-25T14:02:27.762Z,1.77
2023-07-25T14:04:55.954Z,1.02
2023-07-25T14:07:22.718Z,1.60
2023-07-25T14:09:49.354Z,1.45
2023-07-25T14:12:16.113Z,1.42
2023-07-25T14:14:43.043Z,1.00
2023-07-25T14:17:09.828Z,1.30
2023-07-25T14:19:36.609Z,1.20
2023-07-25T14:22:05.350Z,0.93
2023-07-25T14:24:32.087Z,0.90
2023-07-25T14:26:58.820Z,1.52
2023-07-25T14:29:25.809Z,1.20
2023-07-25T14:31:52.535Z,1.35
2023-07-25T14:34:19.356Z,1.33
2023-07-25T14:36:46.262Z,1.25
2023-07-25T14:39:14.440Z,1.35
2023-07-25T14:41:41.233Z,1.63
2023-07-25T14:44:07.929Z,1.67
2023-07-25T14:46:35.133Z,1.35
2023-07-25T14:49:02.183Z,1.90
2023-07-25T14:51:28.981Z,1.65
2023-07-25T14:53:55.698Z,1.58
2023-07-25T14:56:23.903Z,1.65
2023-07-25T14:58:50.628Z,1.80
2023-07-25T15:01:17.762Z,1.40
2023-07-25T15:03:44.691Z,1.60
2023-07-25T15:06:11.464Z,1.73
2023-07-25T15:08:38.180Z,1.42
2023-07-25T15:11:06.151Z,1.00
2023-07-25T15:13:34.331Z,1.55
2023-07-25T15:16:01.348Z,1.27
2023-07-25T15:18:28.126Z,1.30
2023-07-25T15:20:55.186Z,1.30
2023-07-25T15:23:26.495Z,1.40
2023-07-25T15:25:53.296Z,1.65
2023-07-25T15:28:20.109Z,1.73
2023-07-25T15:30:48.634Z,1.25
2023-07-25T15:33:31.159Z,1.45
2023-07-25T15:35:58.124Z,1.50
2023-07-25T15:38:25.484Z,1.50
2023-07-25T15:40:52.255Z,1.90
2023-07-25T15:43:19.763Z,1.50
2023-07-25T15:45:47.977Z,1.55
2023-07-25T15:48:14.770Z,1.60
2023-07-25T15:50:41.795Z,2.05
2023-07-25T15:53:08.595Z,1.50
2023-07-25T15:55:35.635Z,1.45
2023-07-25T15:58:02.642Z,1.33
2023-07-25T16:00:29.417Z,1.40
2023-07-25T16:02:57.714Z,1.40
2023-07-25T16:05:24.593Z,1.67
2023-07-25T16:07:51.380Z,1.88
2023-07-25T16:10:18.271Z,1.40
2023-07-25T16:13:03.470Z,1.40
2023-07-25T16:15:30.271Z,1.50
2023-07-25T16:18:11.625Z,1.83
2023-07-25T16:20:38.395Z,1.65
2023-07-25T16:23:22.658Z,1.90
2023-07-25T16:25:50.950Z,1.88
2023-07-25T16:28:17.743Z,1.80
2023-07-25T16:30:44.560Z,1.50
2023-07-25T16:33:23.390Z,1.30
2023-07-25T16:35:57.540Z,1.45
2023-07-25T16:39:23.719Z,1.50
2023-07-25T16:42:21.581Z,1.38
2023-07-25T16:45:10.612Z,1.50
2023-07-25T16:47:39.920Z,1.35
2023-07-25T16:50:33.965Z,1.33
2023-07-25T16:53:12.622Z,1.98
2023-07-25T16:55:43.089Z,1.60
2023-07-25T16:58:09.855Z,2.03
2023-07-25T17:00:38.798Z,1.88
2023-07-25T17:03:06.881Z,1.83
2023-07-25T17:05:35.298Z,1.80
2023-07-25T17:08:02.102Z,1.60
2023-07-25T17:10:29.211Z,1.60
2023-07-25T17:12:55.915Z,2.10
2023-07-25T17:15:22.851Z,1.70
2023-07-25T17:17:49.654Z,1.92
2023-07-25T17:20:16.606Z,1.52
2023-07-25T17:22:44.918Z,1.75
2023-07-25T17:25:11.712Z,1.55
2023-07-25T17:27:38.669Z,1.92
2023-07-25T17:30:06.721Z,1.50
2023-07-25T17:32:33.590Z,1.60
2023-07-25T17:35:00.476Z,1.15
2023-07-25T17:37:27.343Z,1.50
2023-07-25T17:39:55.676Z,1.83
2023-07-25T17:42:22.439Z,1.40
2023-07-25T17:44:49.256Z,1.38
2023-07-25T17:47:15.986Z,1.20
2023-07-25T17:49:42.967Z,1.60
2023-07-25T17:52:09.744Z,1.40
2023-07-25T17:54:36.544Z,1.33
2023-07-25T17:57:05.193Z,1.10
2023-07-25T17:59:31.959Z,1.15
2023-07-25T18:01:58.724Z,1.20
2023-07-25T18:04:25.599Z,1.20
2023-07-25T18:06:52.403Z,0.82
2023-07-25T18:09:19.442Z,1.13
2023-07-25T18:11:46.554Z,1.10
2023-07-25T18:14:14.808Z,1.08
2023-07-25T18:16:41.531Z,0.85
2023-07-25T18:19:08.243Z,1.00
2023-07-25T18:21:35.537Z,1.08
2023-07-25T18:24:02.237Z,1.00
2023-07-25T18:26:29.065Z,0.88
2023-07-25T18:28:55.753Z,1.10
2023-07-25T18:31:23.997Z,1.30
2023-07-25T18:33:50.781Z,1.38
2023-07-25T18:36:17.613Z,1.20
2023-07-25T18:38:44.313Z,1.00
2023-07-25T18:41:11.270Z,1.05
2023-07-25T18:43:38.640Z,0.95
2023-07-25T18:46:05.584Z,1.17
2023-07-25T18:48:53.705Z,0.93
2023-07-25T18:51:20.422Z,0.90
2023-07-25T18:53:47.334Z,1.10
2023-07-25T18:56:14.662Z,0.85
2023-07-25T18:58:45.213Z,1.00
2023-07-25T19:01:28.416Z,1.00
2023-07-25T19:03:58.840Z,0.90
2023-07-25T19:06:25.937Z,1.23
2023-07-25T19:09:02.728Z,1.00
2023-07-25T19:11:32.834Z,1.20
2023-07-25T19:13:59.768Z,1.10
2023-07-25T19:16:29.220Z,1.05
2023-07-25T19:18:56.076Z,1.00
2023-07-25T19:21:26.552Z,0.85
2023-07-25T19:23:53.272Z,1.17
2023-07-25T19:26:20.262Z,1.13
2023-07-25T19:28:46.955Z,1.25
2023-07-25T19:31:13.896Z,0.93
2023-07-25T19:33:40.642Z,1.05
2023-07-25T19:36:07.435Z,1.17
2023-07-25T19:38:35.689Z,1.13
2023-07-25T19:41:02.564Z,1.25
2023-07-25T19:43:29.437Z,1.70
2023-07-25T19:46:03.215Z,1.55
2023-07-25T19:48:30.009Z,1.10
2023-07-25T19:50:56.795Z,1.10
2023-07-25T19:53:23.528Z,0.90
2023-07-25T19:55:55.395Z,1.55
2023-07-25T19:58:22.208Z,1.20
2023-07-25T20:00:49.169Z,1.30
2023-07-25T20:03:20.868Z,1.88
2023-07-25T20:05:48.130Z,1.20
2023-07-25T20:08:14.901Z,1.70
2023-07-25T20:10:42.468Z,1.58
2023-07-25T20:13:10.514Z,1.40
2023-07-25T20:15:37.138Z,1.33
2023-07-25T20:18:04.359Z,1.50
2023-07-25T20:20:31.018Z,1.00
2023-07-25T20:22:57.832Z,1.15
2023-07-25T20:25:24.543Z,1.00
2023-07-25T20:27:51.200Z,1.38
2023-07-25T20:30:19.489Z,1.38
2023-07-25T20:32:46.208Z,1.48
2023-07-25T20:35:13.498Z,1.52
2023-07-25T20:37:40.206Z,1.65
2023-07-25T20:40:09.774Z,1.25
2023-07-25T20:42:36.772Z,1.48
2023-07-25T20:45:03.797Z,1.10
2023-07-25T20:47:31.885Z,1.52
2023-07-25T20:49:58.594Z,1.50
2023-07-25T20:52:25.224Z,1.70
2023-07-25T20:54:51.893Z,1.10
2023-07-25T20:57:18.660Z,1.25
2023-07-25T20:59:45.272Z,1.23
2023-07-25T21:02:11.978Z,1.40
2023-07-25T21:04:40.076Z,1.30
2023-07-25T21:07:07.514Z,1.50
2023-07-25T21:09:34.225Z,1.40
2023-07-25T21:12:00.982Z,1.52
2023-07-25T21:14:27.598Z,2.20
2023-07-25T21:16:54.259Z,1.50
2023-07-25T21:19:20.915Z,1.13
2023-07-25T21:21:49.057Z,1.50
2023-07-25T21:24:15.855Z,1.27
2023-07-25T21:26:42.527Z,1.10
2023-07-25T21:29:09.210Z,1.17
2023-07-25T21:31:36.843Z,1.10
2023-07-25T21:34:03.675Z,1.75
2023-07-25T21:36:30.686Z,1.48
2023-07-25T21:38:59.110Z,1.27
2023-07-25T21:41:25.882Z,1.83
2023-07-25T21:43:52.816Z,1.70
2023-07-25T21:46:19.698Z,1.40
2023-07-25T21:48:46.520Z,1.35
2023-07-25T21:51:13.275Z,1.45
2023-07-25T21:53:40.135Z,1.30
2023-07-25T21:56:08.217Z,1.90
2023-07-25T21:58:35.047Z,1.30
2023-07-25T22:01:01.836Z,1.10
2023-07-25T22:03:28.920Z,1.25
2023-07-25T22:05:56.215Z,1.88
2023-07-25T22:08:24.036Z,1.20
2023-07-25T22:10:50.953Z,1.15
2023-07-25T22:13:18.994Z,1.40
2023-07-25T22:15:45.826Z,1.70
2023-07-25T22:18:12.722Z,1.88
2023-07-25T22:20:50.695Z,1.33
2023-07-25T22:23:18.860Z,1.60
2023-07-25T22:25:45.546Z,1.50
2023-07-25T22:28:12.437Z,1.60
2023-07-25T22:30:40.545Z,1.45
2023-07-25T22:33:07.215Z,1.10
2023-07-25T22:35:35.071Z,1.85
2023-07-25T22:38:02.550Z,1.30
2023-07-25T22:40:29.276Z,1.20
2023-07-25T22:42:56.356Z,1.13
2023-07-25T22:45:23.373Z,1.63
2023-07-25T22:47:51.462Z,1.95
2023-07-25T22:50:18.091Z,1.70
2023-07-25T22:52:45.203Z,1.40
2023-07-25T22:55:14.998Z,1.00
2023-07-25T22:57:41.913Z,2.15
2023-07-25T23:00:09.098Z,1.30
2023-07-25T23:02:35.815Z,1.23
2023-07-25T23:05:04.292Z,1.52
2023-07-25T23:07:30.939Z,1.60
2023-07-25T23:09:57.887Z,1.63
2023-07-25T23:12:24.880Z,1.63
2023-07-25T23:14:51.733Z,1.40
2023-07-25T23:17:18.533Z,1.77
2023-07-25T23:19:45.264Z,1.25
2023-07-25T23:22:13.355Z,1.40
2023-07-25T23:24:40.623Z,1.50
2023-07-25T23:27:07.921Z,1.20
2023-07-25T23:29:36.153Z,1.83
2023-07-25T23:32:03.146Z,1.00
2023-07-25T23:34:43.960Z,1.40
2023-07-25T23:37:10.606Z,1.10
2023-07-25T23:39:38.713Z,0.95
2023-07-25T23:42:06.085Z,1.75
2023-07-25T23:44:33.827Z,1.15
2023-07-25T23:47:01.139Z,1.40
2023-07-25T23:49:28.289Z,1.30
2023-07-25T23:51:55.992Z,1.35
2023-07-25T23:54:23.575Z,1.00
2023-07-25T23:56:52.168Z,1.70
2023-07-25T23:59:20.031Z,1.20
